sensor_id;sensor_type;location;lat;lon;timestamp;temperature;humidity
4425;DHT22;2225;53.568;13.266;2023-04-07T00:01:36;6.70;76.50
4425;DHT22;2225;53.568;13.266;2023-04-07T00:04:03;6.60;76.30
4425;DHT22;2225;53.568;13.266;2023-04-07T00:06:30;6.60;76.20
4425;DHT22;2225;53.568;13.266;2023-04-07T00:08:58;6.60;76.20
4425;DHT22;2225;53.568;13.266;2023-04-07T00:11:25;6.60;76.30
4425;DHT22;2225;53.568;13.266;2023-04-07T00:13:52;6.60;76.40
4425;DHT22;2225;53.568;13.266;2023-04-07T00:16:19;6.50;76.40
4425;DHT22;2225;53.568;13.266;2023-04-07T00:18:46;6.50;76.50
4425;DHT22;2225;53.568;13.266;2023-04-07T00:21:13;6.50;76.80
4425;DHT22;2225;53.568;13.266;2023-04-07T00:23:40;6.40;76.60
4425;DHT22;2225;53.568;13.266;2023-04-07T00:26:08;6.40;77.00
4425;DHT22;2225;53.568;13.266;2023-04-07T00:28:36;6.30;76.90
4425;DHT22;2225;53.568;13.266;2023-04-07T00:31:03;6.30;77.00
4425;DHT22;2225;53.568;13.266;2023-04-07T00:33:30;6.20;76.80
4425;DHT22;2225;53.568;13.266;2023-04-07T00:35:57;6.20;76.90
4425;DHT22;2225;53.568;13.266;2023-04-07T00:38:24;6.10;77.00
4425;DHT22;2225;53.568;13.266;2023-04-07T00:40:57;6.10;77.20
4425;DHT22;2225;53.568;13.266;2023-04-07T00:43:25;6.00;77.80
4425;DHT22;2225;53.568;13.266;2023-04-07T00:45:53;6.00;77.90
4425;DHT22;2225;53.568;13.266;2023-04-07T00:48:20;6.00;77.90
4425;DHT22;2225;53.568;13.266;2023-04-07T00:50:47;5.90;78.10
4425;DHT22;2225;53.568;13.266;2023-04-07T00:53:15;5.80;78.30
4425;DHT22;2225;53.568;13.266;2023-04-07T00:55:42;5.80;78.20
4425;DHT22;2225;53.568;13.266;2023-04-07T00:58:09;5.70;78.20
4425;DHT22;2225;53.568;13.266;2023-04-07T01:00:50;5.70;78.40
4425;DHT22;2225;53.568;13.266;2023-04-07T01:03:32;5.70;79.00
4425;DHT22;2225;53.568;13.266;2023-04-07T01:06:04;5.70;79.20
4425;DHT22;2225;53.568;13.266;2023-04-07T01:11:45;5.60;79.10
4425;DHT22;2225;53.568;13.266;2023-04-07T01:14:19;5.60;79.40
4425;DHT22;2225;53.568;13.266;2023-04-07T01:16:55;5.50;79.60
4425;DHT22;2225;53.568;13.266;2023-04-07T01:19:36;5.50;79.90
4425;DHT22;2225;53.568;13.266;2023-04-07T01:22:13;5.50;80.80
4425;DHT22;2225;53.568;13.266;2023-04-07T01:25:17;5.40;81.00
4425;DHT22;2225;53.568;13.266;2023-04-07T01:31:00;5.30;81.50
4425;DHT22;2225;53.568;13.266;2023-04-07T01:33:30;5.30;81.20
4425;DHT22;2225;53.568;13.266;2023-04-07T01:35:59;5.20;81.10
4425;DHT22;2225;53.568;13.266;2023-04-07T01:38:28;5.20;81.10
4425;DHT22;2225;53.568;13.266;2023-04-07T01:40:56;5.10;80.90
4425;DHT22;2225;53.568;13.266;2023-04-07T01:43:25;5.10;81.10
4425;DHT22;2225;53.568;13.266;2023-04-07T01:45:55;5.10;81.30
4425;DHT22;2225;53.568;13.266;2023-04-07T01:48:23;5.10;81.80
4425;DHT22;2225;53.568;13.266;2023-04-07T01:50:53;5.00;82.20
4425;DHT22;2225;53.568;13.266;2023-04-07T01:53:22;5.00;83.00
4425;DHT22;2225;53.568;13.266;2023-04-07T01:55:49;5.00;82.80
4425;DHT22;2225;53.568;13.266;2023-04-07T01:58:18;5.00;82.70
4425;DHT22;2225;53.568;13.266;2023-04-07T02:00:45;4.90;82.60
4425;DHT22;2225;53.568;13.266;2023-04-07T02:03:22;4.90;82.50
4425;DHT22;2225;53.568;13.266;2023-04-07T02:05:57;4.90;83.00
4425;DHT22;2225;53.568;13.266;2023-04-07T02:08:29;4.90;82.90
4425;DHT22;2225;53.568;13.266;2023-04-07T02:11:00;4.80;82.70
4425;DHT22;2225;53.568;13.266;2023-04-07T02:13:33;4.80;83.10
4425;DHT22;2225;53.568;13.266;2023-04-07T02:16:00;4.80;83.90
4425;DHT22;2225;53.568;13.266;2023-04-07T02:18:29;4.70;83.50
4425;DHT22;2225;53.568;13.266;2023-04-07T02:20:58;4.80;83.50
4425;DHT22;2225;53.568;13.266;2023-04-07T02:23:26;4.70;83.80
4425;DHT22;2225;53.568;13.266;2023-04-07T02:25:57;4.70;84.00
4425;DHT22;2225;53.568;13.266;2023-04-07T02:28:24;4.70;84.40
4425;DHT22;2225;53.568;13.266;2023-04-07T02:30:51;4.70;84.50
4425;DHT22;2225;53.568;13.266;2023-04-07T02:33:18;4.70;84.80
4425;DHT22;2225;53.568;13.266;2023-04-07T02:35:45;4.70;85.10
4425;DHT22;2225;53.568;13.266;2023-04-07T02:38:12;4.60;85.40
4425;DHT22;2225;53.568;13.266;2023-04-07T02:40:39;4.60;85.80
4425;DHT22;2225;53.568;13.266;2023-04-07T02:43:06;4.60;86.10
4425;DHT22;2225;53.568;13.266;2023-04-07T02:45:33;4.60;87.00
4425;DHT22;2225;53.568;13.266;2023-04-07T02:48:00;4.60;87.10
4425;DHT22;2225;53.568;13.266;2023-04-07T02:50:27;4.50;87.10
4425;DHT22;2225;53.568;13.266;2023-04-07T02:52:54;4.50;87.30
4425;DHT22;2225;53.568;13.266;2023-04-07T02:55:22;4.50;87.50
4425;DHT22;2225;53.568;13.266;2023-04-07T02:57:49;4.40;88.00
4425;DHT22;2225;53.568;13.266;2023-04-07T03:00:35;4.40;88.60
4425;DHT22;2225;53.568;13.266;2023-04-07T03:03:08;4.40;88.40
4425;DHT22;2225;53.568;13.266;2023-04-07T03:05:38;4.40;88.50
4425;DHT22;2225;53.568;13.266;2023-04-07T03:08:06;4.40;88.60
4425;DHT22;2225;53.568;13.266;2023-04-07T03:10:33;4.40;88.80
4425;DHT22;2225;53.568;13.266;2023-04-07T03:13:01;4.40;88.90
4425;DHT22;2225;53.568;13.266;2023-04-07T03:15:29;4.30;88.90
4425;DHT22;2225;53.568;13.266;2023-04-07T03:17:56;4.30;89.40
4425;DHT22;2225;53.568;13.266;2023-04-07T03:20:23;4.30;89.60
4425;DHT22;2225;53.568;13.266;2023-04-07T03:22:50;4.30;89.50
4425;DHT22;2225;53.568;13.266;2023-04-07T03:25:21;4.30;89.40
4425;DHT22;2225;53.568;13.266;2023-04-07T03:27:50;4.30;89.20
4425;DHT22;2225;53.568;13.266;2023-04-07T03:30:18;4.30;89.70
4425;DHT22;2225;53.568;13.266;2023-04-07T03:32:45;4.30;89.40
4425;DHT22;2225;53.568;13.266;2023-04-07T03:35:12;4.30;89.80
4425;DHT22;2225;53.568;13.266;2023-04-07T03:37:39;4.30;89.80
4425;DHT22;2225;53.568;13.266;2023-04-07T03:40:12;4.20;90.00
4425;DHT22;2225;53.568;13.266;2023-04-07T03:42:39;4.20;90.00
4425;DHT22;2225;53.568;13.266;2023-04-07T03:45:07;4.20;90.00
4425;DHT22;2225;53.568;13.266;2023-04-07T03:47:39;4.20;90.00
4425;DHT22;2225;53.568;13.266;2023-04-07T03:50:07;4.20;90.00
4425;DHT22;2225;53.568;13.266;2023-04-07T03:52:42;4.20;89.60
4425;DHT22;2225;53.568;13.266;2023-04-07T03:55:21;4.20;89.50
4425;DHT22;2225;53.568;13.266;2023-04-07T03:57:52;4.20;89.70
4425;DHT22;2225;53.568;13.266;2023-04-07T04:00:20;4.20;90.00
4425;DHT22;2225;53.568;13.266;2023-04-07T04:03:01;4.10;90.00
4425;DHT22;2225;53.568;13.266;2023-04-07T04:05:30;4.10;90.20
4425;DHT22;2225;53.568;13.266;2023-04-07T04:07:57;4.10;90.20
4425;DHT22;2225;53.568;13.266;2023-04-07T04:10:25;4.10;90.30
4425;DHT22;2225;53.568;13.266;2023-04-07T04:12:53;4.00;90.30
4425;DHT22;2225;53.568;13.266;2023-04-07T04:15:21;4.00;90.30
4425;DHT22;2225;53.568;13.266;2023-04-07T04:17:49;4.00;90.40
4425;DHT22;2225;53.568;13.266;2023-04-07T04:20:17;4.00;90.40
4425;DHT22;2225;53.568;13.266;2023-04-07T04:22:47;3.90;90.50
4425;DHT22;2225;53.568;13.266;2023-04-07T04:25:16;3.90;90.40
4425;DHT22;2225;53.568;13.266;2023-04-07T04:27:47;3.90;90.50
4425;DHT22;2225;53.568;13.266;2023-04-07T04:30:18;3.90;90.50
4425;DHT22;2225;53.568;13.266;2023-04-07T04:32:55;3.90;90.50
4425;DHT22;2225;53.568;13.266;2023-04-07T04:35:46;3.90;90.50
4425;DHT22;2225;53.568;13.266;2023-04-07T04:38:16;3.90;90.60
4425;DHT22;2225;53.568;13.266;2023-04-07T04:40:51;3.90;90.70
4425;DHT22;2225;53.568;13.266;2023-04-07T04:43:24;3.90;90.70
4425;DHT22;2225;53.568;13.266;2023-04-07T04:45:51;3.90;90.70
4425;DHT22;2225;53.568;13.266;2023-04-07T04:48:22;3.90;90.70
4425;DHT22;2225;53.568;13.266;2023-04-07T04:50:48;3.90;90.70
4425;DHT22;2225;53.568;13.266;2023-04-07T04:53:16;3.90;90.70
4425;DHT22;2225;53.568;13.266;2023-04-07T04:55:48;4.00;90.90
4425;DHT22;2225;53.568;13.266;2023-04-07T04:58:22;4.00;91.00
4425;DHT22;2225;53.568;13.266;2023-04-07T05:00:53;4.00;91.30
4425;DHT22;2225;53.568;13.266;2023-04-07T05:03:32;4.00;91.50
4425;DHT22;2225;53.568;13.266;2023-04-07T05:06:03;4.00;91.60
4425;DHT22;2225;53.568;13.266;2023-04-07T05:08:31;4.10;91.60
4425;DHT22;2225;53.568;13.266;2023-04-07T05:10:59;4.10;91.30
4425;DHT22;2225;53.568;13.266;2023-04-07T05:13:30;4.10;91.30
4425;DHT22;2225;53.568;13.266;2023-04-07T05:16:00;4.30;91.30
4425;DHT22;2225;53.568;13.266;2023-04-07T05:18:28;4.30;91.20
4425;DHT22;2225;53.568;13.266;2023-04-07T05:20:56;4.40;91.20
4425;DHT22;2225;53.568;13.266;2023-04-07T05:23:24;4.40;91.10
4425;DHT22;2225;53.568;13.266;2023-04-07T05:25:51;4.50;91.00
4425;DHT22;2225;53.568;13.266;2023-04-07T05:28:18;4.60;90.90
4425;DHT22;2225;53.568;13.266;2023-04-07T05:30:47;4.60;90.90
4425;DHT22;2225;53.568;13.266;2023-04-07T05:33:14;4.70;90.80
4425;DHT22;2225;53.568;13.266;2023-04-07T05:35:45;4.70;90.80
4425;DHT22;2225;53.568;13.266;2023-04-07T05:38:12;4.70;90.80
4425;DHT22;2225;53.568;13.266;2023-04-07T05:40:40;4.80;90.80
4425;DHT22;2225;53.568;13.266;2023-04-07T05:43:10;4.80;90.90
4425;DHT22;2225;53.568;13.266;2023-04-07T05:45:37;4.90;91.00
4425;DHT22;2225;53.568;13.266;2023-04-07T05:48:05;4.90;91.10
4425;DHT22;2225;53.568;13.266;2023-04-07T05:50:40;5.00;91.00
4425;DHT22;2225;53.568;13.266;2023-04-07T05:53:10;5.10;91.00
4425;DHT22;2225;53.568;13.266;2023-04-07T05:55:41;5.20;91.10
4425;DHT22;2225;53.568;13.266;2023-04-07T05:58:12;5.20;91.00
4425;DHT22;2225;53.568;13.266;2023-04-07T06:00:45;5.30;91.00
4425;DHT22;2225;53.568;13.266;2023-04-07T06:03:15;5.40;91.00
4425;DHT22;2225;53.568;13.266;2023-04-07T06:05:52;5.40;91.00
4425;DHT22;2225;53.568;13.266;2023-04-07T06:08:20;5.50;91.00
4425;DHT22;2225;53.568;13.266;2023-04-07T06:10:47;5.60;91.10
4425;DHT22;2225;53.568;13.266;2023-04-07T06:13:14;5.60;91.10
4425;DHT22;2225;53.568;13.266;2023-04-07T06:15:41;5.70;91.20
4425;DHT22;2225;53.568;13.266;2023-04-07T06:18:08;5.80;91.30
4425;DHT22;2225;53.568;13.266;2023-04-07T06:20:36;5.90;91.30
4425;DHT22;2225;53.568;13.266;2023-04-07T06:23:02;6.00;91.30
4425;DHT22;2225;53.568;13.266;2023-04-07T06:25:29;6.10;91.70
4425;DHT22;2225;53.568;13.266;2023-04-07T06:27:58;6.20;91.40
4425;DHT22;2225;53.568;13.266;2023-04-07T06:30:26;6.30;91.50
4425;DHT22;2225;53.568;13.266;2023-04-07T06:32:53;6.40;91.70
4425;DHT22;2225;53.568;13.266;2023-04-07T06:35:20;6.60;91.60
4425;DHT22;2225;53.568;13.266;2023-04-07T06:37:47;6.60;91.70
4425;DHT22;2225;53.568;13.266;2023-04-07T06:40:14;6.80;91.60
4425;DHT22;2225;53.568;13.266;2023-04-07T06:42:41;6.90;91.70
4425;DHT22;2225;53.568;13.266;2023-04-07T06:45:21;7.00;91.60
4425;DHT22;2225;53.568;13.266;2023-04-07T06:47:48;7.10;91.50
4425;DHT22;2225;53.568;13.266;2023-04-07T06:50:16;7.20;91.60
4425;DHT22;2225;53.568;13.266;2023-04-07T06:52:46;7.30;91.40
4425;DHT22;2225;53.568;13.266;2023-04-07T06:55:13;7.40;91.40
4425;DHT22;2225;53.568;13.266;2023-04-07T06:57:40;7.50;91.40
4425;DHT22;2225;53.568;13.266;2023-04-07T07:00:07;7.60;91.60
4425;DHT22;2225;53.568;13.266;2023-04-07T07:02:34;7.70;91.50
4425;DHT22;2225;53.568;13.266;2023-04-07T07:05:01;7.70;91.40
4425;DHT22;2225;53.568;13.266;2023-04-07T07:07:30;7.80;91.40
4425;DHT22;2225;53.568;13.266;2023-04-07T07:09:57;7.90;91.50
4425;DHT22;2225;53.568;13.266;2023-04-07T07:12:24;8.00;91.60
4425;DHT22;2225;53.568;13.266;2023-04-07T07:14:51;8.00;91.50
4425;DHT22;2225;53.568;13.266;2023-04-07T07:17:18;8.10;91.40
4425;DHT22;2225;53.568;13.266;2023-04-07T07:19:45;8.20;91.40
4425;DHT22;2225;53.568;13.266;2023-04-07T07:22:11;8.20;91.50
4425;DHT22;2225;53.568;13.266;2023-04-07T07:24:38;8.20;91.30
4425;DHT22;2225;53.568;13.266;2023-04-07T07:27:05;8.30;91.30
4425;DHT22;2225;53.568;13.266;2023-04-07T07:29:32;8.30;91.20
4425;DHT22;2225;53.568;13.266;2023-04-07T07:31:59;8.40;91.30
4425;DHT22;2225;53.568;13.266;2023-04-07T07:34:26;8.40;91.10
4425;DHT22;2225;53.568;13.266;2023-04-07T07:36:53;8.40;91.20
4425;DHT22;2225;53.568;13.266;2023-04-07T07:39:20;8.50;91.10
4425;DHT22;2225;53.568;13.266;2023-04-07T07:41:47;8.50;91.00
4425;DHT22;2225;53.568;13.266;2023-04-07T07:44:16;8.50;91.00
4425;DHT22;2225;53.568;13.266;2023-04-07T07:46:42;8.60;90.90
4425;DHT22;2225;53.568;13.266;2023-04-07T07:49:09;8.60;90.90
4425;DHT22;2225;53.568;13.266;2023-04-07T07:51:37;8.60;90.90
4425;DHT22;2225;53.568;13.266;2023-04-07T07:54:03;8.60;90.90
4425;DHT22;2225;53.568;13.266;2023-04-07T07:56:31;8.60;90.90
4425;DHT22;2225;53.568;13.266;2023-04-07T07:58:58;8.60;91.10
4425;DHT22;2225;53.568;13.266;2023-04-07T08:01:24;8.70;91.10
4425;DHT22;2225;53.568;13.266;2023-04-07T08:03:51;8.70;91.10
4425;DHT22;2225;53.568;13.266;2023-04-07T08:06:19;8.70;91.10
4425;DHT22;2225;53.568;13.266;2023-04-07T08:08:47;8.70;91.10
4425;DHT22;2225;53.568;13.266;2023-04-07T08:11:14;8.70;91.20
4425;DHT22;2225;53.568;13.266;2023-04-07T08:13:41;8.70;91.10
4425;DHT22;2225;53.568;13.266;2023-04-07T08:16:11;8.70;91.10
4425;DHT22;2225;53.568;13.266;2023-04-07T08:18:38;8.80;91.10
4425;DHT22;2225;53.568;13.266;2023-04-07T08:21:05;8.80;91.10
4425;DHT22;2225;53.568;13.266;2023-04-07T08:23:32;8.80;91.10
4425;DHT22;2225;53.568;13.266;2023-04-07T08:25:59;8.80;91.10
4425;DHT22;2225;53.568;13.266;2023-04-07T08:28:26;8.80;91.10
4425;DHT22;2225;53.568;13.266;2023-04-07T08:30:53;8.80;91.20
4425;DHT22;2225;53.568;13.266;2023-04-07T08:33:21;8.80;91.40
4425;DHT22;2225;53.568;13.266;2023-04-07T08:35:47;8.90;91.30
4425;DHT22;2225;53.568;13.266;2023-04-07T08:38:15;8.90;91.20
4425;DHT22;2225;53.568;13.266;2023-04-07T08:40:42;8.90;91.20
4425;DHT22;2225;53.568;13.266;2023-04-07T08:43:09;9.00;91.30
4425;DHT22;2225;53.568;13.266;2023-04-07T08:45:38;9.00;91.20
4425;DHT22;2225;53.568;13.266;2023-04-07T08:48:14;9.00;91.20
4425;DHT22;2225;53.568;13.266;2023-04-07T08:50:48;9.00;91.30
4425;DHT22;2225;53.568;13.266;2023-04-07T08:53:23;9.00;91.30
4425;DHT22;2225;53.568;13.266;2023-04-07T08:55:55;9.00;91.30
4425;DHT22;2225;53.568;13.266;2023-04-07T08:58:22;9.00;91.30
4425;DHT22;2225;53.568;13.266;2023-04-07T09:00:49;9.00;91.40
4425;DHT22;2225;53.568;13.266;2023-04-07T09:03:17;9.00;91.30
4425;DHT22;2225;53.568;13.266;2023-04-07T09:05:45;9.00;91.40
4425;DHT22;2225;53.568;13.266;2023-04-07T09:08:12;9.00;91.50
4425;DHT22;2225;53.568;13.266;2023-04-07T09:10:39;9.10;91.90
4425;DHT22;2225;53.568;13.266;2023-04-07T09:13:06;9.10;91.70
4425;DHT22;2225;53.568;13.266;2023-04-07T09:15:34;9.10;91.70
4425;DHT22;2225;53.568;13.266;2023-04-07T09:18:04;9.10;91.80
4425;DHT22;2225;53.568;13.266;2023-04-07T09:20:57;9.20;92.10
4425;DHT22;2225;53.568;13.266;2023-04-07T09:23:37;9.20;92.10
4425;DHT22;2225;53.568;13.266;2023-04-07T09:28:45;9.10;92.20
4425;DHT22;2225;53.568;13.266;2023-04-07T09:31:13;9.10;92.10
4425;DHT22;2225;53.568;13.266;2023-04-07T09:33:40;9.10;92.20
4425;DHT22;2225;53.568;13.266;2023-04-07T09:36:07;9.10;92.70
4425;DHT22;2225;53.568;13.266;2023-04-07T09:38:35;9.10;92.40
4425;DHT22;2225;53.568;13.266;2023-04-07T09:41:11;9.10;92.40
4425;DHT22;2225;53.568;13.266;2023-04-07T09:43:44;9.10;92.50
4425;DHT22;2225;53.568;13.266;2023-04-07T09:46:16;9.10;92.40
4425;DHT22;2225;53.568;13.266;2023-04-07T09:48:45;9.10;92.50
4425;DHT22;2225;53.568;13.266;2023-04-07T09:51:14;9.10;92.60
4425;DHT22;2225;53.568;13.266;2023-04-07T09:53:51;9.10;92.80
4425;DHT22;2225;53.568;13.266;2023-04-07T09:56:20;9.20;92.80
4425;DHT22;2225;53.568;13.266;2023-04-07T09:58:50;9.10;92.80
4425;DHT22;2225;53.568;13.266;2023-04-07T10:01:18;9.20;92.80
4425;DHT22;2225;53.568;13.266;2023-04-07T10:03:47;9.20;92.80
4425;DHT22;2225;53.568;13.266;2023-04-07T10:06:16;9.20;92.80
4425;DHT22;2225;53.568;13.266;2023-04-07T10:08:43;9.20;93.00
4425;DHT22;2225;53.568;13.266;2023-04-07T10:11:10;9.20;93.00
4425;DHT22;2225;53.568;13.266;2023-04-07T10:13:39;9.20;93.10
4425;DHT22;2225;53.568;13.266;2023-04-07T10:16:07;9.20;93.20
4425;DHT22;2225;53.568;13.266;2023-04-07T10:18:35;9.20;93.40
4425;DHT22;2225;53.568;13.266;2023-04-07T10:21:04;9.20;93.40
4425;DHT22;2225;53.568;13.266;2023-04-07T10:23:46;9.30;93.50
4425;DHT22;2225;53.568;13.266;2023-04-07T10:26:16;9.20;93.80
4425;DHT22;2225;53.568;13.266;2023-04-07T10:28:49;9.20;93.70
4425;DHT22;2225;53.568;13.266;2023-04-07T10:31:17;9.30;93.80
4425;DHT22;2225;53.568;13.266;2023-04-07T10:33:50;9.30;93.80
4425;DHT22;2225;53.568;13.266;2023-04-07T10:36:19;9.30;93.90
4425;DHT22;2225;53.568;13.266;2023-04-07T10:41:45;9.30;94.20
4425;DHT22;2225;53.568;13.266;2023-04-07T10:47:05;9.30;94.20
4425;DHT22;2225;53.568;13.266;2023-04-07T10:49:33;9.20;94.40
4425;DHT22;2225;53.568;13.266;2023-04-07T10:54:40;9.30;94.40
4425;DHT22;2225;53.568;13.266;2023-04-07T10:57:10;9.20;94.50
4425;DHT22;2225;53.568;13.266;2023-04-07T11:02:38;9.20;94.70
4425;DHT22;2225;53.568;13.266;2023-04-07T11:05:06;9.20;94.90
4425;DHT22;2225;53.568;13.266;2023-04-07T11:07:45;9.20;95.10
4425;DHT22;2225;53.568;13.266;2023-04-07T11:10:15;9.10;95.30
4425;DHT22;2225;53.568;13.266;2023-04-07T11:12:57;9.10;95.20
4425;DHT22;2225;53.568;13.266;2023-04-07T11:15:27;9.10;95.50
4425;DHT22;2225;53.568;13.266;2023-04-07T11:18:15;9.10;95.40
4425;DHT22;2225;53.568;13.266;2023-04-07T11:20:54;9.10;95.60
4425;DHT22;2225;53.568;13.266;2023-04-07T11:23:24;9.10;95.60
4425;DHT22;2225;53.568;13.266;2023-04-07T11:26:02;9.00;95.70
4425;DHT22;2225;53.568;13.266;2023-04-07T11:28:30;9.00;95.80
4425;DHT22;2225;53.568;13.266;2023-04-07T11:30:57;9.10;95.60
4425;DHT22;2225;53.568;13.266;2023-04-07T11:33:27;9.00;95.80
4425;DHT22;2225;53.568;13.266;2023-04-07T11:35:57;9.10;95.70
4425;DHT22;2225;53.568;13.266;2023-04-07T11:38:34;9.00;96.00
4425;DHT22;2225;53.568;13.266;2023-04-07T11:41:13;9.10;95.80
4425;DHT22;2225;53.568;13.266;2023-04-07T11:43:40;9.10;95.80
4425;DHT22;2225;53.568;13.266;2023-04-07T11:46:10;9.10;95.80
4425;DHT22;2225;53.568;13.266;2023-04-07T11:48:40;9.10;96.10
4425;DHT22;2225;53.568;13.266;2023-04-07T11:51:21;9.10;95.80
4425;DHT22;2225;53.568;13.266;2023-04-07T11:53:54;9.10;96.00
4425;DHT22;2225;53.568;13.266;2023-04-07T11:56:22;9.00;96.30
4425;DHT22;2225;53.568;13.266;2023-04-07T11:58:53;9.10;96.20
4425;DHT22;2225;53.568;13.266;2023-04-07T12:01:21;9.10;96.40
4425;DHT22;2225;53.568;13.266;2023-04-07T12:04:00;9.10;96.40
4425;DHT22;2225;53.568;13.266;2023-04-07T12:06:35;9.10;96.30
4425;DHT22;2225;53.568;13.266;2023-04-07T12:09:09;9.10;96.30
4425;DHT22;2225;53.568;13.266;2023-04-07T12:11:52;9.10;96.40
4425;DHT22;2225;53.568;13.266;2023-04-07T12:14:19;9.20;96.20
4425;DHT22;2225;53.568;13.266;2023-04-07T12:16:46;9.20;96.20
4425;DHT22;2225;53.568;13.266;2023-04-07T12:19:13;9.20;96.30
4425;DHT22;2225;53.568;13.266;2023-04-07T12:21:40;9.20;96.30
4425;DHT22;2225;53.568;13.266;2023-04-07T12:24:07;9.20;96.20
4425;DHT22;2225;53.568;13.266;2023-04-07T12:26:34;9.20;96.20
4425;DHT22;2225;53.568;13.266;2023-04-07T12:29:01;9.30;96.20
4425;DHT22;2225;53.568;13.266;2023-04-07T12:31:31;9.30;96.10
4425;DHT22;2225;53.568;13.266;2023-04-07T12:33:58;9.30;96.10
4425;DHT22;2225;53.568;13.266;2023-04-07T12:36:26;9.30;96.00
4425;DHT22;2225;53.568;13.266;2023-04-07T12:38:53;9.30;95.80
4425;DHT22;2225;53.568;13.266;2023-04-07T12:41:21;9.30;95.90
4425;DHT22;2225;53.568;13.266;2023-04-07T12:43:50;9.30;95.90
4425;DHT22;2225;53.568;13.266;2023-04-07T12:46:18;9.40;95.80
4425;DHT22;2225;53.568;13.266;2023-04-07T12:48:46;9.40;95.80
4425;DHT22;2225;53.568;13.266;2023-04-07T12:51:13;9.40;95.80
4425;DHT22;2225;53.568;13.266;2023-04-07T12:53:40;9.40;95.80
4425;DHT22;2225;53.568;13.266;2023-04-07T12:56:07;9.40;95.60
4425;DHT22;2225;53.568;13.266;2023-04-07T12:58:36;9.40;95.80
4425;DHT22;2225;53.568;13.266;2023-04-07T13:01:03;9.40;96.00
4425;DHT22;2225;53.568;13.266;2023-04-07T13:03:30;9.40;95.50
4425;DHT22;2225;53.568;13.266;2023-04-07T13:05:57;9.50;95.50
4425;DHT22;2225;53.568;13.266;2023-04-07T13:08:27;9.40;95.60
4425;DHT22;2225;53.568;13.266;2023-04-07T13:10:55;9.40;95.60
4425;DHT22;2225;53.568;13.266;2023-04-07T13:13:22;9.40;95.60
4425;DHT22;2225;53.568;13.266;2023-04-07T13:15:49;9.40;95.50
4425;DHT22;2225;53.568;13.266;2023-04-07T13:18:17;9.40;95.50
4425;DHT22;2225;53.568;13.266;2023-04-07T13:20:44;9.50;95.50
4425;DHT22;2225;53.568;13.266;2023-04-07T13:23:31;9.50;95.50
4425;DHT22;2225;53.568;13.266;2023-04-07T13:26:08;9.50;95.50
4425;DHT22;2225;53.568;13.266;2023-04-07T13:28:35;9.50;95.40
4425;DHT22;2225;53.568;13.266;2023-04-07T13:31:02;9.50;95.50
4425;DHT22;2225;53.568;13.266;2023-04-07T13:33:30;9.60;95.50
4425;DHT22;2225;53.568;13.266;2023-04-07T13:35:57;9.60;95.40
4425;DHT22;2225;53.568;13.266;2023-04-07T13:38:23;9.60;95.30
4425;DHT22;2225;53.568;13.266;2023-04-07T13:40:50;9.60;95.30
4425;DHT22;2225;53.568;13.266;2023-04-07T13:43:17;9.70;95.30
4425;DHT22;2225;53.568;13.266;2023-04-07T13:45:44;9.70;95.30
4425;DHT22;2225;53.568;13.266;2023-04-07T13:48:12;9.70;95.20
4425;DHT22;2225;53.568;13.266;2023-04-07T13:50:40;9.70;95.30
4425;DHT22;2225;53.568;13.266;2023-04-07T13:53:07;9.70;95.30
4425;DHT22;2225;53.568;13.266;2023-04-07T13:55:34;9.70;95.40
4425;DHT22;2225;53.568;13.266;2023-04-07T13:58:00;9.70;95.50
4425;DHT22;2225;53.568;13.266;2023-04-07T14:00:28;9.70;95.40
4425;DHT22;2225;53.568;13.266;2023-04-07T14:02:54;9.70;95.50
4425;DHT22;2225;53.568;13.266;2023-04-07T14:05:22;9.70;95.50
4425;DHT22;2225;53.568;13.266;2023-04-07T14:07:49;9.70;95.60
4425;DHT22;2225;53.568;13.266;2023-04-07T14:10:17;9.70;95.70
4425;DHT22;2225;53.568;13.266;2023-04-07T14:12:43;9.80;95.50
4425;DHT22;2225;53.568;13.266;2023-04-07T14:15:10;9.80;95.60
4425;DHT22;2225;53.568;13.266;2023-04-07T14:17:37;9.80;95.60
4425;DHT22;2225;53.568;13.266;2023-04-07T14:20:05;9.80;95.40
4425;DHT22;2225;53.568;13.266;2023-04-07T14:22:32;9.70;95.10
4425;DHT22;2225;53.568;13.266;2023-04-07T14:24:59;9.80;95.20
4425;DHT22;2225;53.568;13.266;2023-04-07T14:27:26;9.90;95.20
4425;DHT22;2225;53.568;13.266;2023-04-07T14:29:56;9.80;95.30
4425;DHT22;2225;53.568;13.266;2023-04-07T14:32:26;9.90;95.30
4425;DHT22;2225;53.568;13.266;2023-04-07T14:34:55;9.90;95.20
4425;DHT22;2225;53.568;13.266;2023-04-07T14:37:23;9.90;95.20
4425;DHT22;2225;53.568;13.266;2023-04-07T14:39:52;9.90;95.00
4425;DHT22;2225;53.568;13.266;2023-04-07T14:42:29;9.90;95.00
4425;DHT22;2225;53.568;13.266;2023-04-07T14:44:57;9.80;94.90
4425;DHT22;2225;53.568;13.266;2023-04-07T14:47:24;9.80;94.90
4425;DHT22;2225;53.568;13.266;2023-04-07T14:49:52;9.80;94.90
4425;DHT22;2225;53.568;13.266;2023-04-07T14:52:20;9.70;94.90
4425;DHT22;2225;53.568;13.266;2023-04-07T14:54:47;9.70;95.00
4425;DHT22;2225;53.568;13.266;2023-04-07T14:57:14;9.70;95.00
4425;DHT22;2225;53.568;13.266;2023-04-07T14:59:42;9.70;95.20
4425;DHT22;2225;53.568;13.266;2023-04-07T15:02:09;9.60;95.30
4425;DHT22;2225;53.568;13.266;2023-04-07T15:04:36;9.60;95.40
4425;DHT22;2225;53.568;13.266;2023-04-07T15:07:04;9.60;95.30
4425;DHT22;2225;53.568;13.266;2023-04-07T15:09:31;9.60;95.40
4425;DHT22;2225;53.568;13.266;2023-04-07T15:12:01;9.60;95.50
4425;DHT22;2225;53.568;13.266;2023-04-07T15:14:28;9.60;95.50
4425;DHT22;2225;53.568;13.266;2023-04-07T15:16:55;9.60;95.40
4425;DHT22;2225;53.568;13.266;2023-04-07T15:19:22;9.60;95.60
4425;DHT22;2225;53.568;13.266;2023-04-07T15:21:49;9.60;95.60
4425;DHT22;2225;53.568;13.266;2023-04-07T15:24:16;9.70;95.70
4425;DHT22;2225;53.568;13.266;2023-04-07T15:26:44;9.70;95.90
4425;DHT22;2225;53.568;13.266;2023-04-07T15:29:11;9.70;95.80
4425;DHT22;2225;53.568;13.266;2023-04-07T15:31:38;9.70;95.70
4425;DHT22;2225;53.568;13.266;2023-04-07T15:34:05;9.70;95.70
4425;DHT22;2225;53.568;13.266;2023-04-07T15:36:32;9.70;95.70
4425;DHT22;2225;53.568;13.266;2023-04-07T15:39:03;9.70;95.60
4425;DHT22;2225;53.568;13.266;2023-04-07T15:41:31;9.70;95.60
4425;DHT22;2225;53.568;13.266;2023-04-07T15:43:59;9.70;95.50
4425;DHT22;2225;53.568;13.266;2023-04-07T15:46:26;9.70;95.50
4425;DHT22;2225;53.568;13.266;2023-04-07T15:48:53;9.70;95.50
4425;DHT22;2225;53.568;13.266;2023-04-07T15:51:20;9.70;95.50
4425;DHT22;2225;53.568;13.266;2023-04-07T15:53:47;9.70;95.40
4425;DHT22;2225;53.568;13.266;2023-04-07T15:56:15;9.70;95.40
4425;DHT22;2225;53.568;13.266;2023-04-07T15:58:41;9.80;95.50
4425;DHT22;2225;53.568;13.266;2023-04-07T16:01:10;9.80;95.50
4425;DHT22;2225;53.568;13.266;2023-04-07T16:03:38;9.80;95.50
4425;DHT22;2225;53.568;13.266;2023-04-07T16:06:05;9.80;95.50
4425;DHT22;2225;53.568;13.266;2023-04-07T16:08:32;9.80;95.50
4425;DHT22;2225;53.568;13.266;2023-04-07T16:10:59;9.80;95.50
4425;DHT22;2225;53.568;13.266;2023-04-07T16:13:26;9.80;95.70
4425;DHT22;2225;53.568;13.266;2023-04-07T16:15:56;9.80;95.60
4425;DHT22;2225;53.568;13.266;2023-04-07T16:18:23;9.80;95.50
4425;DHT22;2225;53.568;13.266;2023-04-07T16:20:50;9.80;95.40
4425;DHT22;2225;53.568;13.266;2023-04-07T16:23:17;9.80;95.40
4425;DHT22;2225;53.568;13.266;2023-04-07T16:25:44;9.90;95.40
4425;DHT22;2225;53.568;13.266;2023-04-07T16:28:11;9.80;95.50
4425;DHT22;2225;53.568;13.266;2023-04-07T16:30:38;9.80;95.50
4425;DHT22;2225;53.568;13.266;2023-04-07T16:33:05;9.80;95.50
4425;DHT22;2225;53.568;13.266;2023-04-07T16:35:32;9.80;95.80